sensor_id;sensor_type;location;lat;lon;timestamp;temperature;humidity
22974;DHT22;11653;50.848;4.584;2022-12-07T00:01:35;6.90;99.90
22974;DHT22;11653;50.848;4.584;2022-12-07T00:04:02;6.90;99.90
22974;DHT22;11653;50.848;4.584;2022-12-07T00:06:43;7.00;99.90
22974;DHT22;11653;50.848;4.584;2022-12-07T00:09:14;6.90;99.90
22974;DHT22;11653;50.848;4.584;2022-12-07T00:11:40;6.90;99.90
22974;DHT22;11653;50.848;4.584;2022-12-07T00:14:10;6.90;99.90
22974;DHT22;11653;50.848;4.584;2022-12-07T00:16:36;6.90;99.90
22974;DHT22;11653;50.848;4.584;2022-12-07T00:19:03;6.80;99.90
22974;DHT22;11653;50.848;4.584;2022-12-07T00:21:32;6.90;99.90
22974;DHT22;11653;50.848;4.584;2022-12-07T00:23:58;6.80;99.90
22974;DHT22;11653;50.848;4.584;2022-12-07T00:26:35;6.80;99.90
22974;DHT22;11653;50.848;4.584;2022-12-07T00:29:07;6.70;99.90
22974;DHT22;11653;50.848;4.584;2022-12-07T00:31:36;6.70;99.90
22974;DHT22;11653;50.848;4.584;2022-12-07T00:34:09;6.70;99.90
22974;DHT22;11653;50.848;4.584;2022-12-07T00:36:37;6.70;99.90
22974;DHT22;11653;50.848;4.584;2022-12-07T00:39:02;6.50;99.90
22974;DHT22;11653;50.848;4.584;2022-12-07T00:41:29;6.40;99.90
22974;DHT22;11653;50.848;4.584;2022-12-07T00:43:55;6.40;99.90
22974;DHT22;11653;50.848;4.584;2022-12-07T00:46:21;6.20;99.90
22974;DHT22;11653;50.848;4.584;2022-12-07T00:48:47;6.10;99.90
22974;DHT22;11653;50.848;4.584;2022-12-07T00:51:16;6.10;99.90
22974;DHT22;11653;50.848;4.584;2022-12-07T00:53:42;6.00;99.90
22974;DHT22;11653;50.848;4.584;2022-12-07T00:56:13;6.00;99.90
22974;DHT22;11653;50.848;4.584;2022-12-07T00:58:39;6.00;99.90
22974;DHT22;11653;50.848;4.584;2022-12-07T01:01:06;5.90;99.90
22974;DHT22;11653;50.848;4.584;2022-12-07T01:03:32;5.90;99.90
22974;DHT22;11653;50.848;4.584;2022-12-07T01:05:59;5.90;99.90
22974;DHT22;11653;50.848;4.584;2022-12-07T01:08:26;5.90;99.90
22974;DHT22;11653;50.848;4.584;2022-12-07T01:11:03;5.80;99.90
22974;DHT22;11653;50.848;4.584;2022-12-07T01:13:30;5.80;99.90
22974;DHT22;11653;50.848;4.584;2022-12-07T01:15:57;5.80;99.90
22974;DHT22;11653;50.848;4.584;2022-12-07T01:18:26;5.80;99.90
22974;DHT22;11653;50.848;4.584;2022-12-07T01:21:02;5.70;99.90
22974;DHT22;11653;50.848;4.584;2022-12-07T01:23:29;5.70;99.90
22974;DHT22;11653;50.848;4.584;2022-12-07T01:25:59;5.60;99.90
22974;DHT22;11653;50.848;4.584;2022-12-07T01:28:25;5.60;99.90
22974;DHT22;11653;50.848;4.584;2022-12-07T01:30:59;5.60;99.90
22974;DHT22;11653;50.848;4.584;2022-12-07T01:33:30;5.60;99.90
22974;DHT22;11653;50.848;4.584;2022-12-07T01:36:05;5.50;99.90
22974;DHT22;11653;50.848;4.584;2022-12-07T01:38:32;5.50;99.90
22974;DHT22;11653;50.848;4.584;2022-12-07T01:40:59;5.30;99.90
22974;DHT22;11653;50.848;4.584;2022-12-07T01:43:27;5.20;99.90
22974;DHT22;11653;50.848;4.584;2022-12-07T01:45:53;5.10;99.90
22974;DHT22;11653;50.848;4.584;2022-12-07T01:48:32;5.10;99.90
22974;DHT22;11653;50.848;4.584;2022-12-07T01:51:02;5.20;99.90
22974;DHT22;11653;50.848;4.584;2022-12-07T01:53:30;5.30;99.90
22974;DHT22;11653;50.848;4.584;2022-12-07T01:55:56;5.40;99.90
22974;DHT22;11653;50.848;4.584;2022-12-07T01:58:24;5.30;99.90
22974;DHT22;11653;50.848;4.584;2022-12-07T02:00:50;5.10;99.90
22974;DHT22;11653;50.848;4.584;2022-12-07T02:03:24;5.20;99.90
22974;DHT22;11653;50.848;4.584;2022-12-07T02:05:53;5.20;99.90
22974;DHT22;11653;50.848;4.584;2022-12-07T02:08:20;5.30;99.90
22974;DHT22;11653;50.848;4.584;2022-12-07T02:10:46;5.30;99.90
22974;DHT22;11653;50.848;4.584;2022-12-07T02:13:15;5.50;99.90
22974;DHT22;11653;50.848;4.584;2022-12-07T02:22:18;5.70;99.90
22974;DHT22;11653;50.848;4.584;2022-12-07T02:30:22;6.00;99.90
22974;DHT22;11653;50.848;4.584;2022-12-07T02:33:14;6.00;99.90
22974;DHT22;11653;50.848;4.584;2022-12-07T02:36:00;6.00;99.90
22974;DHT22;11653;50.848;4.584;2022-12-07T02:38:37;6.10;99.90
22974;DHT22;11653;50.848;4.584;2022-12-07T02:41:18;6.10;99.90
22974;DHT22;11653;50.848;4.584;2022-12-07T02:43:50;6.10;99.90
22974;DHT22;11653;50.848;4.584;2022-12-07T02:46:21;6.10;99.90
22974;DHT22;11653;50.848;4.584;2022-12-07T02:48:50;6.10;99.90
22974;DHT22;11653;50.848;4.584;2022-12-07T02:51:17;6.10;99.90
22974;DHT22;11653;50.848;4.584;2022-12-07T02:53:44;6.10;99.90
22974;DHT22;11653;50.848;4.584;2022-12-07T02:57:15;6.10;99.90
22974;DHT22;11653;50.848;4.584;2022-12-07T03:09:53;6.20;99.90
22974;DHT22;11653;50.848;4.584;2022-12-07T03:12:38;6.20;99.90
22974;DHT22;11653;50.848;4.584;2022-12-07T03:15:26;6.20;99.90
22974;DHT22;11653;50.848;4.584;2022-12-07T03:17:54;6.10;99.90
22974;DHT22;11653;50.848;4.584;2022-12-07T03:20:23;6.00;99.90
22974;DHT22;11653;50.848;4.584;2022-12-07T03:22:51;5.80;99.90
22974;DHT22;11653;50.848;4.584;2022-12-07T03:25:18;5.70;99.90
22974;DHT22;11653;50.848;4.584;2022-12-07T03:27:54;5.60;99.90
22974;DHT22;11653;50.848;4.584;2022-12-07T03:30:30;5.60;99.90
22974;DHT22;11653;50.848;4.584;2022-12-07T03:33:18;5.60;99.90
22974;DHT22;11653;50.848;4.584;2022-12-07T03:35:58;5.50;99.90
22974;DHT22;11653;50.848;4.584;2022-12-07T03:38:33;5.60;99.90
22974;DHT22;11653;50.848;4.584;2022-12-07T03:41:47;5.70;99.90
22974;DHT22;11653;50.848;4.584;2022-12-07T03:43:54;5.80;99.90
22974;DHT22;11653;50.848;4.584;2022-12-07T03:49:25;6.00;99.90
22974;DHT22;11653;50.848;4.584;2022-12-07T03:54:36;6.10;99.90
22974;DHT22;11653;50.848;4.584;2022-12-07T03:57:04;6.10;99.90
22974;DHT22;11653;50.848;4.584;2022-12-07T03:59:31;6.00;99.90
22974;DHT22;11653;50.848;4.584;2022-12-07T04:02:02;6.00;99.90
22974;DHT22;11653;50.848;4.584;2022-12-07T04:04:28;6.00;99.90
22974;DHT22;11653;50.848;4.584;2022-12-07T04:06:54;6.00;99.90
22974;DHT22;11653;50.848;4.584;2022-12-07T04:09:20;6.00;99.90
22974;DHT22;11653;50.848;4.584;2022-12-07T04:11:46;5.90;99.90
22974;DHT22;11653;50.848;4.584;2022-12-07T04:14:11;5.90;99.90
22974;DHT22;11653;50.848;4.584;2022-12-07T04:16:53;5.90;99.90
22974;DHT22;11653;50.848;4.584;2022-12-07T04:19:24;5.90;99.90
22974;DHT22;11653;50.848;4.584;2022-12-07T04:21:50;5.80;99.90
22974;DHT22;11653;50.848;4.584;2022-12-07T04:24:16;5.80;99.90
22974;DHT22;11653;50.848;4.584;2022-12-07T04:26:42;5.80;99.90
22974;DHT22;11653;50.848;4.584;2022-12-07T04:29:08;5.90;99.90
22974;DHT22;11653;50.848;4.584;2022-12-07T04:31:35;5.80;99.90
22974;DHT22;11653;50.848;4.584;2022-12-07T04:34:01;5.60;99.90
22974;DHT22;11653;50.848;4.584;2022-12-07T04:36:27;5.50;99.90
22974;DHT22;11653;50.848;4.584;2022-12-07T04:38:55;5.50;99.90
22974;DHT22;11653;50.848;4.584;2022-12-07T04:41:22;5.40;99.90
22974;DHT22;11653;50.848;4.584;2022-12-07T04:43:56;5.30;99.90
22974;DHT22;11653;50.848;4.584;2022-12-07T04:46:23;5.20;99.90
22974;DHT22;11653;50.848;4.584;2022-12-07T04:48:50;5.20;99.90
22974;DHT22;11653;50.848;4.584;2022-12-07T04:51:26;5.20;99.90
22974;DHT22;11653;50.848;4.584;2022-12-07T04:53:53;5.20;99.90
22974;DHT22;11653;50.848;4.584;2022-12-07T04:56:19;5.30;99.90
22974;DHT22;11653;50.848;4.584;2022-12-07T04:58:46;5.20;99.90
22974;DHT22;11653;50.848;4.584;2022-12-07T05:01:13;5.10;99.90
22974;DHT22;11653;50.848;4.584;2022-12-07T05:03:39;5.10;99.90
22974;DHT22;11653;50.848;4.584;2022-12-07T05:06:05;5.10;99.90
22974;DHT22;11653;50.848;4.584;2022-12-07T05:08:32;5.00;99.90
22974;DHT22;11653;50.848;4.584;2022-12-07T05:10:59;5.00;99.90
22974;DHT22;11653;50.848;4.584;2022-12-07T05:13:25;5.20;99.90
22974;DHT22;11653;50.848;4.584;2022-12-07T05:15:50;5.20;99.90
22974;DHT22;11653;50.848;4.584;2022-12-07T05:18:16;5.20;99.90
22974;DHT22;11653;50.848;4.584;2022-12-07T05:20:42;5.10;99.90
22974;DHT22;11653;50.848;4.584;2022-12-07T05:23:08;5.10;99.90
22974;DHT22;11653;50.848;4.584;2022-12-07T05:25:34;5.10;99.90
22974;DHT22;11653;50.848;4.584;2022-12-07T05:28:00;5.10;99.90
22974;DHT22;11653;50.848;4.584;2022-12-07T05:30:25;5.20;99.90
22974;DHT22;11653;50.848;4.584;2022-12-07T05:32:52;5.20;99.90
22974;DHT22;11653;50.848;4.584;2022-12-07T05:35:18;5.10;99.90
22974;DHT22;11653;50.848;4.584;2022-12-07T05:37:44;5.20;99.90
22974;DHT22;11653;50.848;4.584;2022-12-07T05:40:11;5.40;99.90
22974;DHT22;11653;50.848;4.584;2022-12-07T05:42:37;5.50;99.90
22974;DHT22;11653;50.848;4.584;2022-12-07T05:45:03;5.50;99.90
22974;DHT22;11653;50.848;4.584;2022-12-07T05:47:29;5.60;99.90
22974;DHT22;11653;50.848;4.584;2022-12-07T05:49:55;5.70;99.90
22974;DHT22;11653;50.848;4.584;2022-12-07T05:52:21;5.70;99.90
22974;DHT22;11653;50.848;4.584;2022-12-07T05:54:46;5.80;99.90
22974;DHT22;11653;50.848;4.584;2022-12-07T05:57:12;5.80;99.90
22974;DHT22;11653;50.848;4.584;2022-12-07T05:59:38;5.80;99.90
22974;DHT22;11653;50.848;4.584;2022-12-07T06:02:09;5.80;99.90
22974;DHT22;11653;50.848;4.584;2022-12-07T06:04:40;5.80;99.90
22974;DHT22;11653;50.848;4.584;2022-12-07T06:07:07;5.90;99.90
22974;DHT22;11653;50.848;4.584;2022-12-07T06:09:33;5.90;99.90
22974;DHT22;11653;50.848;4.584;2022-12-07T06:11:59;5.90;99.90
22974;DHT22;11653;50.848;4.584;2022-12-07T06:14:44;5.90;99.90
22974;DHT22;11653;50.848;4.584;2022-12-07T06:17:11;5.80;99.90
22974;DHT22;11653;50.848;4.584;2022-12-07T06:19:38;5.80;99.90
22974;DHT22;11653;50.848;4.584;2022-12-07T06:22:04;5.70;99.90
22974;DHT22;11653;50.848;4.584;2022-12-07T06:24:31;5.70;99.90
22974;DHT22;11653;50.848;4.584;2022-12-07T06:26:57;5.70;99.90
22974;DHT22;11653;50.848;4.584;2022-12-07T06:29:23;5.80;99.90
22974;DHT22;11653;50.848;4.584;2022-12-07T06:31:49;5.70;99.90
22974;DHT22;11653;50.848;4.584;2022-12-07T06:34:17;5.80;99.90
22974;DHT22;11653;50.848;4.584;2022-12-07T06:36:43;5.80;99.90
22974;DHT22;11653;50.848;4.584;2022-12-07T06:39:09;5.80;99.90
22974;DHT22;11653;50.848;4.584;2022-12-07T06:41:36;5.90;99.90
22974;DHT22;11653;50.848;4.584;2022-12-07T06:44:03;5.80;99.90
22974;DHT22;11653;50.848;4.584;2022-12-07T06:46:29;5.90;99.90
22974;DHT22;11653;50.848;4.584;2022-12-07T06:48:54;5.90;99.90
22974;DHT22;11653;50.848;4.584;2022-12-07T06:51:20;6.00;99.90
22974;DHT22;11653;50.848;4.584;2022-12-07T06:53:46;6.00;99.90
22974;DHT22;11653;50.848;4.584;2022-12-07T06:56:12;6.00;99.90
22974;DHT22;11653;50.848;4.584;2022-12-07T06:58:39;5.90;99.90
22974;DHT22;11653;50.848;4.584;2022-12-07T07:01:13;5.90;99.90
22974;DHT22;11653;50.848;4.584;2022-12-07T07:03:39;5.90;99.90
22974;DHT22;11653;50.848;4.584;2022-12-07T07:06:08;5.90;99.90
22974;DHT22;11653;50.848;4.584;2022-12-07T07:08:35;5.80;99.90
22974;DHT22;11653;50.848;4.584;2022-12-07T07:11:01;5.70;99.90
22974;DHT22;11653;50.848;4.584;2022-12-07T07:13:27;5.70;99.90
22974;DHT22;11653;50.848;4.584;2022-12-07T07:15:53;5.70;99.90
22974;DHT22;11653;50.848;4.584;2022-12-07T07:18:19;5.60;99.90
22974;DHT22;11653;50.848;4.584;2022-12-07T07:20:45;5.70;99.90
22974;DHT22;11653;50.848;4.584;2022-12-07T07:23:10;5.70;99.90
22974;DHT22;11653;50.848;4.584;2022-12-07T07:25:36;5.70;99.90
22974;DHT22;11653;50.848;4.584;2022-12-07T07:28:02;5.70;99.90
22974;DHT22;11653;50.848;4.584;2022-12-07T07:30:28;5.80;99.90
22974;DHT22;11653;50.848;4.584;2022-12-07T07:33:01;5.70;99.90
22974;DHT22;11653;50.848;4.584;2022-12-07T07:35:28;5.80;99.90
22974;DHT22;11653;50.848;4.584;2022-12-07T07:37:55;5.90;99.90
22974;DHT22;11653;50.848;4.584;2022-12-07T07:40:21;6.10;99.90
22974;DHT22;11653;50.848;4.584;2022-12-07T07:42:48;6.10;99.90
22974;DHT22;11653;50.848;4.584;2022-12-07T07:45:14;6.20;99.90
22974;DHT22;11653;50.848;4.584;2022-12-07T07:47:39;6.20;99.90
22974;DHT22;11653;50.848;4.584;2022-12-07T07:50:06;6.20;99.90
22974;DHT22;11653;50.848;4.584;2022-12-07T07:52:32;6.20;99.90
22974;DHT22;11653;50.848;4.584;2022-12-07T07:54:57;6.30;99.90
22974;DHT22;11653;50.848;4.584;2022-12-07T07:57:23;6.40;99.90
22974;DHT22;11653;50.848;4.584;2022-12-07T07:59:49;6.50;99.90
22974;DHT22;11653;50.848;4.584;2022-12-07T08:02:17;6.70;99.90
22974;DHT22;11653;50.848;4.584;2022-12-07T08:04:44;6.70;99.90
22974;DHT22;11653;50.848;4.584;2022-12-07T08:07:12;6.50;99.90
22974;DHT22;11653;50.848;4.584;2022-12-07T08:09:38;6.40;99.90
22974;DHT22;11653;50.848;4.584;2022-12-07T08:12:04;6.30;99.90
22974;DHT22;11653;50.848;4.584;2022-12-07T08:14:33;6.20;99.90
22974;DHT22;11653;50.848;4.584;2022-12-07T08:17:00;6.00;99.90
22974;DHT22;11653;50.848;4.584;2022-12-07T08:19:26;5.90;99.90
22974;DHT22;11653;50.848;4.584;2022-12-07T08:21:51;5.80;99.90
22974;DHT22;11653;50.848;4.584;2022-12-07T08:24:17;5.80;99.90
22974;DHT22;11653;50.848;4.584;2022-12-07T08:26:43;5.70;99.90
22974;DHT22;11653;50.848;4.584;2022-12-07T08:29:09;5.60;99.90
22974;DHT22;11653;50.848;4.584;2022-12-07T08:31:35;5.50;99.90
22974;DHT22;11653;50.848;4.584;2022-12-07T08:34:00;5.50;99.90
22974;DHT22;11653;50.848;4.584;2022-12-07T08:36:26;5.60;99.90
22974;DHT22;11653;50.848;4.584;2022-12-07T08:38:52;5.70;99.90
22974;DHT22;11653;50.848;4.584;2022-12-07T08:41:18;5.80;99.90
22974;DHT22;11653;50.848;4.584;2022-12-07T08:43:43;5.80;99.90
22974;DHT22;11653;50.848;4.584;2022-12-07T08:48:46;6.10;99.90
22974;DHT22;11653;50.848;4.584;2022-12-07T08:51:15;6.30;99.90
22974;DHT22;11653;50.848;4.584;2022-12-07T08:53:41;6.40;99.90
22974;DHT22;11653;50.848;4.584;2022-12-07T08:56:07;6.60;99.90
22974;DHT22;11653;50.848;4.584;2022-12-07T08:58:43;6.70;99.90
22974;DHT22;11653;50.848;4.584;2022-12-07T09:01:09;6.90;99.90
22974;DHT22;11653;50.848;4.584;2022-12-07T09:03:35;7.00;99.90
22974;DHT22;11653;50.848;4.584;2022-12-07T09:06:01;7.10;99.90
22974;DHT22;11653;50.848;4.584;2022-12-07T09:08:39;7.00;99.90
22974;DHT22;11653;50.848;4.584;2022-12-07T09:11:06;7.20;99.90
22974;DHT22;11653;50.848;4.584;2022-12-07T09:13:32;7.30;99.90
22974;DHT22;11653;50.848;4.584;2022-12-07T09:15:58;7.50;99.90
22974;DHT22;11653;50.848;4.584;2022-12-07T09:18:23;7.40;99.90
22974;DHT22;11653;50.848;4.584;2022-12-07T09:20:50;7.30;99.90
22974;DHT22;11653;50.848;4.584;2022-12-07T09:23:22;7.20;99.90
22974;DHT22;11653;50.848;4.584;2022-12-07T09:25:48;7.00;99.90
22974;DHT22;11653;50.848;4.584;2022-12-07T09:28:14;7.00;99.90
22974;DHT22;11653;50.848;4.584;2022-12-07T09:30:45;7.00;99.90
22974;DHT22;11653;50.848;4.584;2022-12-07T09:33:12;7.00;99.90
22974;DHT22;11653;50.848;4.584;2022-12-07T09:35:37;7.00;99.90
22974;DHT22;11653;50.848;4.584;2022-12-07T09:38:03;7.00;99.90
22974;DHT22;11653;50.848;4.584;2022-12-07T09:40:29;7.10;99.90
22974;DHT22;11653;50.848;4.584;2022-12-07T09:42:55;7.20;99.90
22974;DHT22;11653;50.848;4.584;2022-12-07T09:45:40;7.30;99.90
22974;DHT22;11653;50.848;4.584;2022-12-07T09:48:09;7.40;99.90
22974;DHT22;11653;50.848;4.584;2022-12-07T09:50:40;7.60;99.90
22974;DHT22;11653;50.848;4.584;2022-12-07T09:53:09;7.60;99.90
22974;DHT22;11653;50.848;4.584;2022-12-07T09:55:38;7.70;99.90
22974;DHT22;11653;50.848;4.584;2022-12-07T09:58:06;7.70;99.90
22974;DHT22;11653;50.848;4.584;2022-12-07T10:00:32;7.60;99.90
22974;DHT22;11653;50.848;4.584;2022-12-07T10:02:59;7.50;99.90
22974;DHT22;11653;50.848;4.584;2022-12-07T10:05:36;7.50;99.90
22974;DHT22;11653;50.848;4.584;2022-12-07T10:08:03;7.50;99.90
22974;DHT22;11653;50.848;4.584;2022-12-07T10:10:34;7.50;99.90
22974;DHT22;11653;50.848;4.584;2022-12-07T10:13:06;7.60;99.90
22974;DHT22;11653;50.848;4.584;2022-12-07T10:18:55;7.60;99.90
22974;DHT22;11653;50.848;4.584;2022-12-07T10:21:16;7.70;99.90
22974;DHT22;11653;50.848;4.584;2022-12-07T10:26:36;7.70;99.90
22974;DHT22;11653;50.848;4.584;2022-12-07T10:29:36;7.80;99.90
22974;DHT22;11653;50.848;4.584;2022-12-07T10:34:42;7.80;99.90
22974;DHT22;11653;50.848;4.584;2022-12-07T10:39:50;7.90;99.90
22974;DHT22;11653;50.848;4.584;2022-12-07T10:42:21;8.10;99.90
22974;DHT22;11653;50.848;4.584;2022-12-07T10:44:49;8.40;99.90
22974;DHT22;11653;50.848;4.584;2022-12-07T10:48:10;8.60;99.90
22974;DHT22;11653;50.848;4.584;2022-12-07T10:56:24;9.10;99.90
22974;DHT22;11653;50.848;4.584;2022-12-07T11:10:39;8.80;99.90
22974;DHT22;11653;50.848;4.584;2022-12-07T11:18:45;8.80;99.90
22974;DHT22;11653;50.848;4.584;2022-12-07T11:24:06;9.10;99.90
22974;DHT22;11653;50.848;4.584;2022-12-07T11:32:24;11.30;99.90
22974;DHT22;11653;50.848;4.584;2022-12-07T11:37:37;12.60;99.90
22974;DHT22;11653;50.848;4.584;2022-12-07T11:40:24;12.90;99.90
22974;DHT22;11653;50.848;4.584;2022-12-07T11:46:10;13.10;99.90
22974;DHT22;11653;50.848;4.584;2022-12-07T11:49:44;13.10;99.90
22974;DHT22;11653;50.848;4.584;2022-12-07T11:51:57;12.80;99.90
22974;DHT22;11653;50.848;4.584;2022-12-07T11:54:32;12.00;99.90
22974;DHT22;11653;50.848;4.584;2022-12-07T11:57:04;11.50;99.90
22974;DHT22;11653;50.848;4.584;2022-12-07T11:59:56;11.30;99.90
22974;DHT22;11653;50.848;4.584;2022-12-07T12:02:31;11.10;99.90
22974;DHT22;11653;50.848;4.584;2022-12-07T12:05:02;11.10;99.90
22974;DHT22;11653;50.848;4.584;2022-12-07T12:07:31;11.20;99.90
22974;DHT22;11653;50.848;4.584;2022-12-07T12:21:27;11.50;99.90
22974;DHT22;11653;50.848;4.584;2022-12-07T12:24:03;11.30;99.90
22974;DHT22;11653;50.848;4.584;2022-12-07T12:26:33;11.20;99.90
22974;DHT22;11653;50.848;4.584;2022-12-07T12:29:19;11.10;99.90
22974;DHT22;11653;50.848;4.584;2022-12-07T12:31:47;10.90;99.90
22974;DHT22;11653;50.848;4.584;2022-12-07T12:42:51;10.20;99.90
22974;DHT22;11653;50.848;4.584;2022-12-07T12:45:30;10.00;99.90
22974;DHT22;11653;50.848;4.584;2022-12-07T12:50:40;9.70;99.90
22974;DHT22;11653;50.848;4.584;2022-12-07T12:56:17;9.70;99.90
22974;DHT22;11653;50.848;4.584;2022-12-07T12:58:47;9.70;99.90
22974;DHT22;11653;50.848;4.584;2022-12-07T13:04:02;10.00;99.90
22974;DHT22;11653;50.848;4.584;2022-12-07T13:06:35;9.90;99.90
22974;DHT22;11653;50.848;4.584;2022-12-07T13:09:03;9.90;99.90
22974;DHT22;11653;50.848;4.584;2022-12-07T13:11:32;9.80;99.90
22974;DHT22;11653;50.848;4.584;2022-12-07T13:17:02;9.80;99.90
22974;DHT22;11653;50.848;4.584;2022-12-07T13:25:18;9.10;99.90
22974;DHT22;11653;50.848;4.584;2022-12-07T13:28:00;9.00;99.90
22974;DHT22;11653;50.848;4.584;2022-12-07T13:30:29;8.90;99.90
22974;DHT22;11653;50.848;4.584;2022-12-07T13:32:58;8.90;99.90
22974;DHT22;11653;50.848;4.584;2022-12-07T13:35:33;8.90;99.90
22974;DHT22;11653;50.848;4.584;2022-12-07T13:38:02;8.90;99.90
22974;DHT22;11653;50.848;4.584;2022-12-07T13:40:29;8.80;99.90
22974;DHT22;11653;50.848;4.584;2022-12-07T13:43:01;8.70;99.90
22974;DHT22;11653;50.848;4.584;2022-12-07T13:45:29;8.70;99.90
22974;DHT22;11653;50.848;4.584;2022-12-07T13:48:47;8.70;99.90
22974;DHT22;11653;50.848;4.584;2022-12-07T13:51:23;8.80;99.90
22974;DHT22;11653;50.848;4.584;2022-12-07T13:54:00;8.80;99.90
22974;DHT22;11653;50.848;4.584;2022-12-07T13:56:32;8.80;99.90
22974;DHT22;11653;50.848;4.584;2022-12-07T13:58:58;8.80;99.90
22974;DHT22;11653;50.848;4.584;2022-12-07T14:01:25;8.80;99.90
22974;DHT22;11653;50.848;4.584;2022-12-07T14:03:51;8.80;99.90
22974;DHT22;11653;50.848;4.584;2022-12-07T14:08:45;8.80;99.90
22974;DHT22;11653;50.848;4.584;2022-12-07T14:11:17;8.80;99.90
22974;DHT22;11653;50.848;4.584;2022-12-07T14:13:58;8.80;99.90
22974;DHT22;11653;50.848;4.584;2022-12-07T14:16:33;8.90;99.90
22974;DHT22;11653;50.848;4.584;2022-12-07T14:19:03;9.00;99.90
22974;DHT22;11653;50.848;4.584;2022-12-07T14:21:32;9.10;99.90
22974;DHT22;11653;50.848;4.584;2022-12-07T14:26:40;9.10;99.90
22974;DHT22;11653;50.848;4.584;2022-12-07T14:31:52;8.90;99.90
22974;DHT22;11653;50.848;4.584;2022-12-07T14:34:22;8.50;99.90
22974;DHT22;11653;50.848;4.584;2022-12-07T14:36:48;8.20;99.90
22974;DHT22;11653;50.848;4.584;2022-12-07T14:39:14;7.90;99.90
22974;DHT22;11653;50.848;4.584;2022-12-07T14:41:40;7.70;99.90
22974;DHT22;11653;50.848;4.584;2022-12-07T14:44:19;7.60;99.90
22974;DHT22;11653;50.848;4.584;2022-12-07T14:46:47;7.60;99.90
22974;DHT22;11653;50.848;4.584;2022-12-07T14:49:12;7.60;99.90
22974;DHT22;11653;50.848;4.584;2022-12-07T14:51:39;7.60;99.90
22974;DHT22;11653;50.848;4.584;2022-12-07T14:54:09;7.60;99.90
22974;DHT22;11653;50.848;4.584;2022-12-07T14:56:39;7.70;99.90
22974;DHT22;11653;50.848;4.584;2022-12-07T14:59:05;7.70;99.90
22974;DHT22;11653;50.848;4.584;2022-12-07T15:01:30;7.60;99.90
22974;DHT22;11653;50.848;4.584;2022-12-07T15:03:56;7.60;99.90
22974;DHT22;11653;50.848;4.584;2022-12-07T15:06:22;7.60;99.90
22974;DHT22;11653;50.848;4.584;2022-12-07T15:08:47;7.50;99.90
22974;DHT22;11653;50.848;4.584;2022-12-07T15:11:17;7.50;99.90
22974;DHT22;11653;50.848;4.584;2022-12-07T15:13:43;7.60;99.90
22974;DHT22;11653;50.848;4.584;2022-12-07T15:16:27;7.60;99.90
22974;DHT22;11653;50.848;4.584;2022-12-07T15:18:53;7.60;99.90
22974;DHT22;11653;50.848;4.584;2022-12-07T15:21:19;7.60;99.90
22974;DHT22;11653;50.848;4.584;2022-12-07T15:23:46;7.50;99.90
22974;DHT22;11653;50.848;4.584;2022-12-07T15:26:13;7.50;99.90
22974;DHT22;11653;50.848;4.584;2022-12-07T15:28:40;7.50;99.90
22974;DHT22;11653;50.848;4.584;2022-12-07T15:31:17;7.50;99.90
22974;DHT22;11653;50.848;4.584;2022-12-07T15:33:44;7.50;99.90
22974;DHT22;11653;50.848;4.584;2022-12-07T15:36:19;7.50;99.90
22974;DHT22;11653;50.848;4.584;2022-12-07T15:38:46;7.40;99.90
22974;DHT22;11653;50.848;4.584;2022-12-07T15:41:11;7.40;99.90
22974;DHT22;11653;50.848;4.584;2022-12-07T15:43:37;7.40;99.90
22974;DHT22;11653;50.848;4.584;2022-12-07T15:46:21;7.40;99.90
22974;DHT22;11653;50.848;4.584;2022-12-07T15:48:47;7.40;99.90
22974;DHT22;11653;50.848;4.584;2022-12-07T15:51:12;7.40;99.90
22974;DHT22;11653;50.848;4.584;2022-12-07T15:53:38;7.40;99.90
22974;DHT22;11653;50.848;4.584;2022-12-07T15:56:07;7.40;99.90
22974;DHT22;11653;50.848;4.584;2022-12-07T15:58:33;7.40;99.90
22974;DHT22;11653;50.848;4.584;2022-12-07T16:00:59;7.40;99.90
22974;DHT22;11653;50.848;4.584;2022-12-07T16:03:26;7.40;99.90
22974;DHT22;11653;50.848;4.584;2022-12-07T16:05:52;7.40;99.90
22974;DHT22;11653;50.848;4.584;2022-12-07T16:08:18;7.40;99.90
22974;DHT22;11653;50.848;4.584;2022-12-07T16:10:44;7.40;99.90
22974;DHT22;11653;50.848;4.584;2022-12-07T16:13:10;7.40;99.90
22974;DHT22;11653;50.848;4.584;2022-12-07T16:15:43;7.40;99.90
22974;DHT22;11653;50.848;4.584;2022-12-07T16:18:08;7.40;99.90
22974;DHT22;11653;50.848;4.584;2022-12-07T16:20:34;7.40;99.90
22974;DHT22;11653;50.848;4.584;2022-12-07T16:23:00;7.50;99.90
22974;DHT22;11653;50.848;4.584;2022-12-07T16:25:25;7.50;99.90
22974;DHT22;11653;50.848;4.584;2022-12-07T16:27:52;7.50;99.90
22974;DHT22;11653;50.848;4.584;2022-12-07T16:30:18;7.40;99.90
22974;DHT22;11653;50.848;4.584;2022-12-07T16:32:44;7.40;99.90
22974;DHT22;11653;50.848;4.584;2022-12-07T16:35:10;7.30;99.90
22974;DHT22;11653;50.848;4.584;2022-12-07T16:37:36;7.30;99.90
22974;DHT22;11653;50.848;4.584;2022-12-07T16:40:03;7.40;99.90
22974;DHT22;11653;50.848;4.584;2022-12-07T16:42:32;7.40;99.90
22974;DHT22;11653;50.848;4.584;2022-12-07T16:44:58;7.40;99.90
22974;DHT22;11653;50.848;4.584;2022-12-07T16:47:24;7.40;99.90
22974;DHT22;11653;50.848;4.584;2022-12-07T16:49:49;7.40;99.90
22974;DHT22;11653;50.848;4.584;2022-12-07T16:52:16;7.50;99.90
22974;DHT22;11653;50.848;4.584;2022-12-07T16:54:41;7.40;99.90
22974;DHT22;11653;50.848;4.584;2022-12-07T16:57:07;7.40;99.90
22974;DHT22;11653;50.848;4.584;2022-12-07T16:59:34;7.40;99.90
22974;DHT22;11653;50.848;4.584;2022-12-07T17:01:59;7.40;99.90
22974;DHT22;11653;50.848;4.584;2022-12-07T17:04:25;7.40;99.90
22974;DHT22;11653;50.848;4.584;2022-12-07T17:06:51;7.30;99.90
22974;DHT22;11653;50.848;4.584;2022-12-07T17:09:16;7.30;99.90
22974;DHT22;11653;50.848;4.584;2022-12-07T17:11:44;7.30;99.90
22974;DHT22;11653;50.848;4.584;2022-12-07T17:14:10;7.30;99.90
22974;DHT22;11653;50.848;4.584;2022-12-07T17:16:54;7.20;99.90
22974;DHT22;11653;50.848;4.584;2022-12-07T17:19:20;7.30;99.90
22974;DHT22;11653;50.848;4.584;2022-12-07T17:21:46;7.40;99.90
22974;DHT22;11653;50.848;4.584;2022-12-07T17:24:15;7.30;99.90
22974;DHT22;11653;50.848;4.584;2022-12-07T17:26:43;7.20;99.90
22974;DHT22;11653;50.848;4.584;2022-12-07T17:29:11;7.20;99.90
22974;DHT22;11653;50.848;4.584;2022-12-07T17:31:37;7.10;99.90
22974;DHT22;11653;50.848;4.584;2022-12-07T17:34:03;7.20;99.90
22974;DHT22;11653;50.848;4.584;2022-12-07T17:36:30;7.20;99.90
22974;DHT22;11653;50.848;4.584;2022-12-07T17:38:56;7.20;99.90
22974;DHT22;11653;50.848;4.584;2022-12-07T17:41:25;7.20;99.90
22974;DHT22;11653;50.848;4.584;2022-12-07T17:44:18;7.10;99.90
22974;DHT22;11653;50.848;4.584;2022-12-07T17:46:48;7.00;99.90
22974;DHT22;11653;50.848;4.584;2022-12-07T17:49:14;7.00;99.90
22974;DHT22;11653;50.848;4.584;2022-12-07T17:51:40;7.00;99.90
22974;DHT22;11653;50.848;4.584;2022-12-07T17:54:24;7.00;99.90
22974;DHT22;11653;50.848;4.584;2022-12-07T17:56:50;7.00;99.90
22974;DHT22;11653;50.848;4.584;2022-12-07T17:59:17;7.00;99.90
22974;DHT22;11653;50.848;4.584;2022-12-07T18:01:43;7.00;99.90
22974;DHT22;11653;50.848;4.584;2022-12-07T18:04:09;7.00;99.90